Time;durP1;ratioP1;P1;durP2;ratioP2;P2;SDS_P1;SDS_P2;PMS_P1;PMS_P2;Temp;Humidity;BMP_temperature;BMP_pressure;BME280_temperature;BME280_humidity;BME280_pressure;Samples;Min_cycle;Max_cycle;Signal;HPM_P1;HPM_P2
2022/10/28 00:03:00;;;;;;;42.85;16.70;;;;;;;6.38;71.11;100296.28;4974951;28;20106;-93
2022/10/28 00:05:27;;;;;;;43.20;16.67;;;;;;;6.12;71.24;100249.91;4957804;28;20078;-94
2022/10/28 00:12:50;;;;;;;47.78;18.23;;;;;;;6.42;72.00;100294.66;4974938;28;20097;-95
2022/10/28 00:15:17;;;;;;;47.55;19.08;;;;;;;6.35;71.33;100290.28;4929323;28;20146;-93
2022/10/28 00:17:43;;;;;;;42.33;17.52;;;;;;;6.49;71.22;100295.25;4961176;28;20042;-93
2022/10/28 00:20:10;;;;;;;47.78;17.33;;;;;;;6.71;70.76;100314.97;4946154;28;20042;-95
2022/10/28 00:22:36;;;;;;;46.60;16.75;;;;;;;6.73;70.51;100307.38;4977504;28;20110;-94
2022/10/28 00:25:03;;;;;;;39.25;15.82;;;;;;;6.58;70.05;100280.91;4929826;28;20444;-92
2022/10/28 00:27:30;;;;;;;38.45;15.65;;;;;;;6.73;70.26;100306.56;4946022;28;20039;-92
2022/10/28 00:29:58;;;;;;;40.42;16.95;;;;;;;6.87;70.25;100334.06;4945745;28;20046;-93
2022/10/28 00:32:24;;;;;;;45.42;17.05;;;;;;;6.83;70.04;100320.19;4946248;28;20054;-93
2022/10/28 00:37:32;;;;;;;45.92;16.90;;;;;;;6.45;70.23;100278.66;4946174;28;20094;-93
2022/10/28 00:42:30;;;;;;;48.60;18.30;;;;;;;6.30;70.45;100251.41;4979346;28;20046;-93
2022/10/28 00:45:03;;;;;;;46.10;18.13;;;;;;;6.67;70.46;100308.41;4945301;28;20035;-92
2022/10/28 00:47:36;;;;;;;47.85;17.95;;;;;;;6.74;70.39;100314.44;4929364;28;20050;-92
2022/10/28 00:50:25;;;;;;;44.58;18.08;;;;;;;6.40;70.74;100273.22;4960394;28;20091;-92
2022/10/28 00:53:04;;;;;;;48.22;17.52;;;;;;;6.65;70.69;100321.44;4956867;29;20047;-93
2022/10/28 00:55:32;;;;;;;51.97;18.17;;;;;;;6.11;70.91;100242.88;4942096;29;20047;-93
2022/10/28 01:02:55;;;;;;;44.67;17.83;;;;;;;6.49;70.09;100263.50;4957982;29;20042;-92
2022/10/28 01:05:26;;;;;;;45.90;17.08;;;;;;;6.86;69.97;100311.53;4943146;29;20047;-93
2022/10/28 01:07:56;;;;;;;40.80;16.90;;;;;;;6.41;69.90;100261.25;4940415;29;20051;-93
2022/10/28 01:10:38;;;;;;;35.80;15.80;;;;;;;6.26;70.44;100255.75;4925782;29;20047;-92
2022/10/28 01:13:20;;;;;;;32.50;13.52;;;;;;;6.52;70.08;100303.72;4940767;29;20058;-92
2022/10/28 01:16:06;;;;;;;31.88;13.50;;;;;;;6.28;70.05;100265.25;4939840;29;20043;-92
2022/10/28 01:19:32;;;;;;;32.67;13.40;;;;;;;6.28;70.31;100273.38;4939764;29;20521;-92
2022/10/28 01:22:32;;;;;;;30.88;12.93;;;;;;;6.73;69.91;100320.16;4939633;29;20046;-92
2022/10/28 01:25:00;;;;;;;33.67;13.05;;;;;;;6.80;69.68;100320.72;4938510;29;20043;-91
2022/10/28 01:27:51;;;;;;;33.15;13.18;;;;;;;6.69;69.80;100317.13;4939413;29;20054;-91
2022/10/28 01:30:27;;;;;;;30.10;12.88;;;;;;;6.47;69.77;100281.94;4940144;29;20051;-93
2022/10/28 01:33:17;;;;;;;31.00;12.52;;;;;;;6.73;69.53;100320.16;4924742;29;20074;-93
2022/10/28 01:35:51;;;;;;;29.10;12.32;;;;;;;6.63;70.21;100318.19;4924710;29;20106;-92
2022/10/28 01:38:27;;;;;;;25.17;11.07;;;;;;;6.66;69.74;100322.28;4924400;29;20543;-93
2022/10/28 01:43:46;;;;;;;24.95;11.20;;;;;;;6.55;70.32;100319.47;4958950;29;20039;-96
2022/10/28 01:46:25;;;;;;;25.02;11.13;;;;;;;6.47;69.73;100292.00;4943426;29;20047;-92
2022/10/28 01:49:01;;;;;;;25.00;10.85;;;;;;;6.51;69.46;100287.66;4956953;29;20046;-92
2022/10/28 01:51:38;;;;;;;24.95;11.27;;;;;;;6.63;69.39;100285.56;4939782;29;20058;-92
2022/10/28 01:54:07;;;;;;;26.88;11.68;;;;;;;6.67;69.37;100294.03;4924003;28;20051;-91
2022/10/28 01:56:39;;;;;;;28.42;13.02;;;;;;;6.47;69.17;100275.69;4924819;29;20576;-91
2022/10/28 01:59:28;;;;;;;29.63;12.68;;;;;;;6.62;69.08;100296.69;4940224;29;20043;-92
2022/10/28 02:01:55;;;;;;;25.58;11.68;;;;;;;6.69;68.76;100278.25;4923549;29;20071;-93
2022/10/28 02:04:22;;;;;;;28.50;13.48;;;;;;;6.71;68.71;100284.25;4908504;29;20035;-91
2022/10/28 02:09:54;;;;;;;29.63;12.68;;;;;;;6.89;68.61;100310.16;4957127;28;20043;-94
2022/10/28 02:12:37;;;;;;;33.63;13.60;;;;;;;6.58;69.26;100261.09;4939395;29;20149;-91
2022/10/28 02:15:40;;;;;;;24.85;10.93;;;;;;;6.80;69.00;100299.78;4916481;29;20051;-92
2022/10/28 02:18:19;;;;;;;28.13;12.43;;;;;;;6.68;69.20;100304.59;4940496;29;20246;-92
2022/10/28 02:23:41;;;;;;;27.42;12.52;;;;;;;6.86;69.40;100324.31;4957660;29;20171;-93
2022/10/28 02:26:21;;;;;;;26.40;12.13;;;;;;;6.90;69.00;100323.50;4939543;29;20097;-93
2022/10/28 02:29:14;;;;;;;32.50;12.00;;;;;;;6.71;69.50;100308.72;4908394;29;20078;-91
2022/10/28 02:31:47;;;;;;;32.67;13.57;;;;;;;6.73;69.12;100292.97;4941921;29;20043;-92
2022/10/28 02:34:19;;;;;;;29.73;12.82;;;;;;;6.98;69.08;100333.03;4907811;29;20039;-92
2022/10/28 02:36:51;;;;;;;30.73;12.90;;;;;;;6.92;68.95;100304.19;4907728;29;20043;-92
2022/10/28 02:39:23;;;;;;;33.05;13.93;;;;;;;7.10;68.68;100317.34;4923933;29;20138;-92
2022/10/28 02:42:01;;;;;;;30.23;12.60;;;;;;;6.69;68.71;100276.38;4940167;29;20107;-92
2022/10/28 02:47:01;;;;;;;29.35;12.32;;;;;;;6.79;68.60;100276.44;4955966;29;20039;-92
2022/10/28 02:52:02;;;;;;;33.35;12.57;;;;;;;6.63;68.79;100279.34;4955942;28;20066;-92
2022/10/28 02:54:35;;;;;;;26.98;12.27;;;;;;;6.80;69.25;100305.22;4929024;28;20042;-94
2022/10/28 02:57:23;;;;;;;29.17;11.85;;;;;;;6.92;69.51;100293.31;4942077;28;20505;-93
2022/10/28 02:59:59;;;;;;;30.92;12.98;;;;;;;6.91;68.96;100286.25;4942863;28;20129;-92
2022/10/28 03:02:27;;;;;;;29.40;12.32;;;;;;;6.83;68.89;100279.44;4926381;28;20057;-94
2022/10/28 03:04:53;;;;;;;29.77;12.75;;;;;;;6.95;69.39;100320.78;4910571;28;20570;-93
2022/10/28 03:07:20;;;;;;;34.33;13.75;;;;;;;6.89;69.66;100304.72;4941395;28;20038;-92
2022/10/28 03:09:46;;;;;;;40.08;13.70;;;;;;;6.66;69.83;100293.22;4958245;28;20516;-91
2022/10/28 03:12:12;;;;;;;32.95;13.60;;;;;;;6.62;69.91;100278.47;4942112;28;20081;-92
2022/10/28 03:14:38;;;;;;;35.08;12.77;;;;;;;6.72;69.81;100296.75;4973719;28;20066;-91
2022/10/28 03:17:06;;;;;;;34.90;13.55;;;;;;;6.72;70.54;100297.59;4957442;28;20070;-93
2022/10/28 03:19:33;;;;;;;31.83;13.82;;;;;;;7.04;70.02;100318.41;4957696;28;20046;-92
2022/10/28 03:24:28;;;;;;;31.67;13.63;;;;;;;6.54;70.21;100273.56;4976063;28;20070;-91
2022/10/28 03:26:54;;;;;;;31.83;12.63;;;;;;;6.65;70.51;100279.88;4958959;28;20516;-90
2022/10/28 03:34:18;;;;;;;28.20;13.15;;;;;;;6.94;70.31;100319.16;4974654;28;20046;-93
2022/10/28 03:39:13;;;;;;;28.77;13.20;;;;;;;6.96;70.14;100300.69;4974747;28;20047;-92
2022/10/28 03:41:39;;;;;;;35.63;12.60;;;;;;;6.85;69.69;100276.44;4942440;28;20098;-91
2022/10/28 03:44:05;;;;;;;29.33;13.50;;;;;;;6.90;69.55;100280.00;4928243;28;20035;-91
2022/10/28 03:46:31;;;;;;;31.00;12.65;;;;;;;6.72;70.16;100251.41;4961886;28;20085;-92
2022/10/28 03:48:58;;;;;;;39.58;15.70;;;;;;;6.42;70.28;100229.47;4961423;28;20058;-92
2022/10/28 03:51:24;;;;;;;31.42;12.77;;;;;;;6.55;70.65;100258.91;4962758;28;20045;-95
2022/10/28 03:53:50;;;;;;;30.15;12.45;;;;;;;6.71;70.73;100273.38;4943883;28;20543;-94
2022/10/28 03:58:49;;;;;;;29.42;12.23;;;;;;;7.00;70.68;100309.13;4959839;29;20044;-93
2022/10/28 04:01:15;;;;;;;37.35;13.90;;;;;;;6.70;70.72;100248.13;4925921;29;20043;-94
2022/10/28 04:03:41;;;;;;;31.53;14.23;;;;;;;6.58;70.84;100239.34;4910312;29;20042;-94
2022/10/28 04:06:09;;;;;;;33.97;13.98;;;;;;;6.71;71.06;100255.19;4925578;29;20468;-92
2022/10/28 04:08:36;;;;;;;34.80;13.20;;;;;;;6.67;70.87;100237.78;4960263;28;20035;-94
2022/10/28 04:11:02;;;;;;;39.13;13.15;;;;;;;6.81;70.53;100247.06;4944872;28;20069;-92
2022/10/28 04:13:33;;;;;;;31.35;12.38;;;;;;;7.00;70.38;100263.75;4931016;28;20054;-94
2022/10/28 04:16:00;;;;;;;28.63;12.45;;;;;;;6.90;70.07;100239.22;4948544;28;20046;-92
2022/10/28 04:18:31;;;;;;;37.45;13.98;;;;;;;6.73;70.28;100242.16;4948251;28;20060;-95
2022/10/28 04:20:58;;;;;;;29.13;12.65;;;;;;;6.54;70.63;100230.09;4930457;28;20047;-92
2022/10/28 04:23:26;;;;;;;31.42;13.20;;;;;;;7.00;70.71;100288.22;4946553;28;20038;-95
2022/10/28 04:25:53;;;;;;;31.63;13.68;;;;;;;7.04;70.74;100308.34;4967051;28;20039;-95
2022/10/28 04:28:22;;;;;;;;;;;;;;;7.09;70.73;100304.84;4947527;28;20789;-94
2022/10/28 04:30:49;;;;;;;27.83;13.05;;;;;;;6.61;71.21;100232.56;4930172;28;20370;-92
2022/10/28 04:33:18;;;;;;;27.35;12.05;;;;;;;6.96;70.82;100276.22;4931011;28;20038;-94
2022/10/28 04:35:45;;;;;;;27.65;12.48;;;;;;;6.77;70.61;100256.03;4949897;28;20046;-94
2022/10/28 04:38:13;;;;;;;31.77;12.83;;;;;;;6.50;71.05;100224.38;4932287;28;20043;-93
2022/10/28 04:40:40;;;;;;;31.08;13.82;;;;;;;6.81;71.61;100276.16;4948388;28;20051;-94
2022/10/28 04:43:06;;;;;;;24.95;12.38;;;;;;;6.68;71.64;100244.84;4945044;28;20045;-91
2022/10/28 04:45:32;;;;;;;29.58;13.77;;;;;;;6.87;71.41;100261.50;4946157;28;20046;-95
2022/10/28 04:48:00;;;;;;;32.05;14.45;;;;;;;7.03;71.12;100279.53;4930193;28;20042;-94
2022/10/28 04:50:27;;;;;;;28.25;12.75;;;;;;;6.88;71.44;100265.03;4948761;28;20061;-93
2022/10/28 04:52:53;;;;;;;31.42;13.13;;;;;;;6.95;71.42;100269.13;4929430;28;20062;-94
2022/10/28 04:55:19;;;;;;;31.85;13.10;;;;;;;6.90;71.69;100287.34;4954067;28;20129;-95
2022/10/28 04:57:56;;;;;;;29.87;12.87;;;;;;;6.59;72.12;100238.28;4960090;28;20151;-92
2022/10/28 05:02:51;;;;;;;35.15;14.23;;;;;;;6.73;72.02;100258.47;4978239;28;20121;-94
2022/10/28 05:05:18;;;;;;;38.93;15.67;;;;;;;6.44;72.17;100211.03;4943879;28;20043;-93
2022/10/28 05:07:45;;;;;;;33.05;14.82;;;;;;;6.53;72.11;100218.41;4945383;28;20066;-95
2022/10/28 05:10:14;;;;;;;41.93;18.13;;;;;;;6.79;71.78;100251.97;4976097;28;20047;-90
2022/10/28 05:12:41;;;;;;;39.55;16.70;;;;;;;6.67;71.99;100247.84;4976518;28;20098;-90
2022/10/28 05:15:09;;;;;;;32.85;15.00;;;;;;;6.77;72.30;100250.59;4945232;28;20047;-93
2022/10/28 05:20:05;;;;;;;32.90;13.07;;;;;;;6.47;72.40;100249.34;4977396;28;20042;-93
2022/10/28 05:22:31;;;;;;;;;;;;;;;6.76;72.82;100297.88;4960389;28;20035;-92
2022/10/28 05:24:58;;;;;;;30.65;14.48;;;;;;;6.55;72.91;100256.19;4960217;28;19926;-93
2022/10/28 05:27:24;;;;;;;36.47;15.10;;;;;;;6.48;72.82;100237.41;4943944;28;20066;-94
2022/10/28 05:29:50;;;;;;;33.22;14.93;;;;;;;6.52;72.79;100240.41;4943841;28;20074;-93
2022/10/28 05:37:14;;;;;;;33.58;14.55;;;;;;;7.10;72.45;100301.03;4977434;28;20043;-92
2022/10/28 05:39:40;;;;;;;30.77;13.52;;;;;;;7.19;72.14;100294.00;4960354;28;20043;-92
2022/10/28 05:42:06;;;;;;;29.17;12.20;;;;;;;6.85;71.89;100247.34;4943584;28;20064;-93
2022/10/28 05:47:01;;;;;;;29.83;12.85;;;;;;;6.71;72.39;100247.03;4976097;28;20046;-94
2022/10/28 05:49:28;;;;;;;31.67;13.98;;;;;;;6.73;72.33;100244.06;4943219;28;20071;-94
2022/10/28 05:51:54;;;;;;;31.13;13.35;;;;;;;7.01;72.42;100295.28;4943761;28;20131;-94
2022/10/28 05:54:20;;;;;;;28.05;12.20;;;;;;;7.01;72.59;100286.31;4947653;28;20049;-92
2022/10/28 05:56:46;;;;;;;33.63;14.57;;;;;;;7.22;72.43;100287.22;4961662;28;20041;-92
2022/10/28 05:59:12;;;;;;;39.70;14.95;;;;;;;7.18;72.09;100277.94;4949523;28;20053;-91
2022/10/28 06:01:38;;;;;;;33.67;14.75;;;;;;;6.94;72.24;100237.63;4965344;28;20435;-91
2022/10/28 06:04:05;;;;;;;25.58;11.43;;;;;;;7.02;71.97;100274.38;4977634;28;20038;-90
2022/10/28 06:06:31;;;;;;;27.33;12.32;;;;;;;7.10;72.37;100289.34;4993638;28;20092;-90
2022/10/28 06:08:58;;;;;;;33.67;14.17;;;;;;;6.97;72.55;100261.56;4961393;28;20571;-91
2022/10/28 06:11:24;;;;;;;43.30;18.33;;;;;;;7.06;72.26;100256.44;4962151;28;20062;-93
2022/10/28 06:13:50;;;;;;;41.67;14.85;;;;;;;7.25;72.01;100289.38;4979343;28;20044;-93
2022/10/28 06:16:16;;;;;;;26.65;12.00;;;;;;;6.98;71.76;100237.91;4962753;28;20141;-93
2022/10/28 06:18:43;;;;;;;26.98;13.35;;;;;;;7.23;71.97;100269.81;4949308;28;20034;-91
2022/10/28 06:21:10;;;;;;;35.25;15.63;;;;;;;7.40;72.03;100294.06;4967145;28;20137;-92
2022/10/28 06:23:36;;;;;;;37.95;16.75;;;;;;;7.06;72.52;100234.69;4958023;29;20555;-93
2022/10/28 06:26:04;;;;;;;35.33;15.68;;;;;;;6.87;72.83;100214.50;4914756;29;20155;-94
2022/10/28 06:28:31;;;;;;;37.47;14.75;;;;;;;6.85;73.44;100211.22;4904751;29;20150;-94
2022/10/28 06:31:39;;;;;;;36.90;14.82;;;;;;;6.94;73.80;100247.66;4903568;29;20071;-91
2022/10/28 06:34:05;;;;;;;;;;;;;;;7.24;74.15;100291.28;4884959;29;20049;-92
2022/10/28 06:36:31;;;;;;;44.40;18.47;;;;;;;7.36;74.23;100272.03;4857430;29;19930;-95
2022/10/28 06:38:58;;;;;;;51.45;19.88;;;;;;;7.30;73.41;100249.41;4889959;29;20052;-92
2022/10/28 06:41:24;;;;;;;45.10;17.90;;;;;;;7.18;73.42;100234.44;4902819;29;20045;-94
2022/10/28 06:43:50;;;;;;;112.60;46.53;;;;;;;7.47;73.57;100273.66;4867944;29;20049;-90
2022/10/28 06:46:17;;;;;;;61.80;27.73;;;;;;;7.33;73.36;100255.41;4863287;29;20041;-91
2022/10/28 06:48:43;;;;;;;;;;;;;;;7.51;73.33;100272.03;4850575;29;20052;-90
2022/10/28 06:51:10;;;;;;;35.53;16.17;;;;;;;7.37;73.55;100257.31;4851659;29;20530;-90
2022/10/28 06:53:37;;;;;;;49.33;21.20;;;;;;;7.40;73.85;100264.13;4861390;29;20084;-91
2022/10/28 06:56:03;;;;;;;;;;;;;;;7.41;73.33;100285.63;4842068;29;20328;-89
2022/10/28 06:58:29;;;;;;;41.50;15.67;;;;;;;7.18;74.16;100259.72;4863277;29;20034;-90
2022/10/28 07:01:02;;;;;;;44.58;15.07;;;;;;;7.43;74.14;100277.19;4871018;29;20296;-90
2022/10/28 07:03:28;;;;;;;34.30;14.98;;;;;;;7.43;73.75;100255.44;4870515;29;20486;-90
2022/10/28 07:05:54;;;;;;;36.88;15.45;;;;;;;7.43;73.32;100229.03;4849659;29;20053;-90
2022/10/28 07:08:20;;;;;;;33.25;14.43;;;;;;;7.43;72.91;100217.34;4864581;29;20047;-90
2022/10/28 07:10:58;;;;;;;35.17;15.15;;;;;;;7.50;73.19;100248.66;4915943;29;20112;-90
2022/10/28 07:13:25;;;;;;;38.67;16.23;;;;;;;7.69;73.40;100265.28;4910546;29;20043;-92
2022/10/28 07:15:53;;;;;;;40.40;16.88;;;;;;;7.67;73.03;100237.50;4933641;29;20483;-93
2022/10/28 07:18:20;;;;;;;40.05;15.95;;;;;;;7.99;72.53;100271.84;4929509;29;20421;-91
2022/10/28 07:20:47;;;;;;;38.63;15.30;;;;;;;7.79;72.07;100239.97;4916407;29;20054;-91
2022/10/28 07:23:13;;;;;;;37.50;14.63;;;;;;;7.75;72.37;100236.16;4899582;29;20051;-91
2022/10/28 07:25:39;;;;;;;35.43;15.00;;;;;;;8.04;72.38;100254.66;4896471;29;20044;-92
2022/10/28 07:28:05;;;;;;;35.72;13.45;;;;;;;8.03;72.16;100237.53;4914418;29;20563;-90
2022/10/28 07:30:32;;;;;;;31.55;13.23;;;;;;;8.27;71.91;100245.13;4898808;29;20079;-89
2022/10/28 07:32:59;;;;;;;34.22;14.75;;;;;;;8.27;71.55;100236.94;4919518;29;20040;-89
2022/10/28 07:35:27;;;;;;;34.97;13.35;;;;;;;8.37;71.69;100258.72;4906261;29;20075;-89
2022/10/28 07:37:53;;;;;;;34.42;14.02;;;;;;;8.37;71.65;100254.06;4905509;29;20048;-90
2022/10/28 07:40:22;;;;;;;34.25;14.35;;;;;;;8.64;70.94;100256.53;4897995;29;20118;-90
2022/10/28 07:42:48;;;;;;;34.55;15.40;;;;;;;8.54;70.90;100234.72;4905551;29;20048;-91
2022/10/28 07:45:14;;;;;;;37.47;14.73;;;;;;;8.52;71.35;100253.28;4902107;28;20050;-89
2022/10/28 07:47:41;;;;;;;36.33;15.90;;;;;;;8.65;71.98;100263.59;4933199;28;20137;-90
2022/10/28 07:50:07;;;;;;;35.50;15.27;;;;;;;8.66;71.33;100240.69;4926154;29;20054;-92
2022/10/28 07:52:34;;;;;;;34.92;15.48;;;;;;;8.68;71.48;100232.25;4945733;29;20205;-92
2022/10/28 07:55:01;;;;;;;;;;;;;;;8.90;70.93;100250.97;4938518;29;20055;-91
2022/10/28 07:57:29;;;;;;;31.63;15.07;;;;;;;8.83;71.22;100262.19;4954024;28;20394;-90
2022/10/28 07:59:55;;;;;;;28.73;14.88;;;;;;;8.71;71.34;100239.88;4974301;28;20517;-90
2022/10/28 08:02:24;;;;;;;37.00;15.70;;;;;;;8.90;71.65;100261.88;4937167;28;20062;-90
2022/10/28 08:04:51;;;;;;;36.53;14.32;;;;;;;9.02;71.61;100259.66;4964008;28;20531;-91
2022/10/28 08:07:19;;;;;;;30.65;15.02;;;;;;;8.96;71.00;100249.84;4938173;29;20114;-93
2022/10/28 08:09:45;;;;;;;36.10;15.07;;;;;;;8.78;71.11;100206.88;4937676;29;20083;-92
2022/10/28 08:12:13;;;;;;;37.70;14.43;;;;;;;8.91;70.44;100222.63;4923562;29;20143;-90
2022/10/28 08:14:40;;;;;;;35.50;14.30;;;;;;;9.25;70.55;100268.28;4933600;28;20132;-92
2022/10/28 08:17:06;;;;;;;30.47;13.10;;;;;;;9.28;70.33;100260.34;4961281;28;20046;-91
2022/10/28 08:19:33;;;;;;;30.15;13.00;;;;;;;9.16;70.35;100259.84;4947722;28;20297;-91
2022/10/28 08:21:59;;;;;;;28.30;13.93;;;;;;;9.15;70.47;100242.69;4958816;28;20114;-90
2022/10/28 08:24:25;;;;;;;33.15;15.98;;;;;;;9.20;70.17;100246.47;4957995;28;20329;-89
2022/10/28 08:26:51;;;;;;;40.83;17.08;;;;;;;9.18;70.51;100233.94;4954764;28;20050;-91
2022/10/28 08:29:17;;;;;;;30.33;14.60;;;;;;;9.25;70.33;100252.72;4959792;28;20051;-89
2022/10/28 08:31:43;;;;;;;34.53;16.15;;;;;;;8.87;70.58;100192.38;4961299;28;20039;-89
2022/10/28 08:34:09;;;;;;;31.25;14.90;;;;;;;9.41;70.93;100250.72;4942573;28;20039;-91
2022/10/28 08:36:37;;;;;;;29.60;13.85;;;;;;;9.29;70.17;100215.59;4953202;29;20035;-93
2022/10/28 08:39:04;;;;;;;;;;;;;;;9.61;69.83;100247.06;4924974;29;20104;-92
2022/10/28 08:41:38;;;;;;;32.53;12.98;;;;;;;9.62;69.81;100251.41;4940278;29;20406;-91
2022/10/28 08:44:40;;;;;;;26.33;12.55;;;;;;;9.68;69.87;100249.47;4942830;28;20101;-89
2022/10/28 08:47:35;;;;;;;27.27;12.68;;;;;;;9.59;69.81;100241.06;4944161;28;20050;-90
2022/10/28 08:50:11;;;;;;;28.42;12.90;;;;;;;9.60;69.77;100221.69;4911024;29;20075;-90
2022/10/28 08:53:04;;;;;;;30.42;15.18;;;;;;;9.89;69.62;100253.66;4937745;29;20058;-92
2022/10/28 08:55:51;;;;;;;25.05;12.82;;;;;;;9.82;69.44;100247.72;4927727;28;20059;-92
2022/10/28 08:58:32;;;;;;;25.67;12.82;;;;;;;9.83;69.29;100250.19;4947499;28;20165;-90
2022/10/28 09:00:58;;;;;;;27.05;12.73;;;;;;;9.66;69.72;100241.53;4923196;29;20508;-89
2022/10/28 09:03:36;;;;;;;25.55;11.73;;;;;;;9.59;69.64;100202.84;4947100;29;20051;-90
2022/10/28 09:06:05;;;;;;;23.90;12.18;;;;;;;9.68;69.57;100211.25;4924136;29;20043;-90
2022/10/28 09:08:38;;;;;;;26.33;12.82;;;;;;;9.59;69.48;100183.72;4955662;28;20043;-88
2022/10/28 09:11:36;;;;;;;26.15;13.07;;;;;;;9.92;69.52;100233.16;4957939;28;20042;-90
2022/10/28 09:14:28;;;;;;;26.17;11.55;;;;;;;9.80;69.54;100217.97;4961052;28;20046;-89
2022/10/28 09:17:16;;;;;;;26.08;11.63;;;;;;;9.69;69.52;100193.75;4933011;28;20046;-92
2022/10/28 09:19:57;;;;;;;24.52;10.52;;;;;;;9.62;69.77;100189.44;4943619;28;20046;-91
2022/10/28 09:22:32;;;;;;;29.95;12.45;;;;;;;9.82;69.89;100196.63;4936960;29;20585;-90
2022/10/28 09:25:13;;;;;;;24.02;12.05;;;;;;;9.96;70.15;100195.97;4958693;28;20055;-91
2022/10/28 09:28:03;;;;;;;28.08;11.70;;;;;;;9.89;69.48;100172.53;4937182;28;20158;-92
2022/10/28 09:30:53;;;;;;;26.50;12.90;;;;;;;10.17;69.19;100199.34;4961376;28;20047;-90
2022/10/28 09:33:34;;;;;;;27.23;13.35;;;;;;;10.19;69.48;100200.66;4963979;28;20042;-90
2022/10/28 09:39:01;;;;;;;30.50;13.25;;;;;;;10.22;69.44;100191.91;4921375;29;20063;-93
2022/10/28 09:41:37;;;;;;;26.88;12.45;;;;;;;10.29;69.15;100205.25;4955659;29;20517;-92
2022/10/28 09:44:25;;;;;;;25.08;11.95;;;;;;;9.98;69.31;100159.09;4921206;29;20092;-90
2022/10/28 09:46:55;;;;;;;27.40;12.32;;;;;;;10.26;69.29;100182.03;4906147;29;20142;-93
2022/10/28 09:49:32;;;;;;;22.58;11.45;;;;;;;10.32;69.19;100194.53;4894346;29;20485;-91
2022/10/28 09:52:49;;;;;;;27.33;12.82;;;;;;;10.15;69.19;100125.84;4907739;29;20111;-91
2022/10/28 09:55:20;;;;;;;27.70;13.13;;;;;;;10.46;68.71;100158.31;4887543;29;20177;-94
2022/10/28 09:57:50;;;;;;;25.65;12.25;;;;;;;10.47;68.33;100147.09;4897977;29;20055;-89
2022/10/28 10:00:17;;;;;;;24.40;12.60;;;;;;;10.67;68.43;100156.16;4888975;29;20458;-90
2022/10/28 10:02:43;;;;;;;29.80;13.48;;;;;;;10.76;68.52;100179.84;4871979;29;20063;-90
2022/10/28 10:05:17;;;;;;;24.45;11.85;;;;;;;10.52;68.75;100136.09;4882583;29;20721;-93
2022/10/28 10:08:25;;;;;;;26.27;12.95;;;;;;;10.75;68.58;100161.78;4868741;29;20544;-95
2022/10/28 10:11:04;;;;;;;25.35;11.18;;;;;;;10.76;68.49;100165.31;4824643;29;20678;-91
2022/10/28 10:13:38;;;;;;;21.63;11.52;;;;;;;10.88;68.29;100157.53;4804771;29;20134;-90
2022/10/28 10:16:14;;;;;;;22.17;11.88;;;;;;;10.87;67.63;100139.50;4831562;29;20205;-88
2022/10/28 10:19:17;;;;;;;22.00;11.23;;;;;;;10.80;67.78;100172.66;4875811;29;20152;-92
2022/10/28 10:22:23;;;;;;;24.15;11.80;;;;;;;10.88;68.29;100168.47;4855757;29;20063;-92
2022/10/28 10:24:52;;;;;;;21.63;12.10;;;;;;;10.87;68.46;100166.84;4845143;29;20080;-91
2022/10/28 10:27:21;;;;;;;27.50;11.40;;;;;;;10.55;68.25;100113.66;4859859;29;20642;-90
2022/10/28 10:29:52;;;;;;;25.10;11.55;;;;;;;10.96;67.92;100165.09;4874052;29;20575;-89
2022/10/28 10:32:30;;;;;;;29.20;12.80;;;;;;;10.85;67.84;100151.81;4885531;29;20120;-89
2022/10/28 10:35:12;;;;;;;22.45;11.40;;;;;;;11.02;67.78;100157.59;4900152;29;20110;-93
2022/10/28 10:37:46;;;;;;;25.85;11.60;;;;;;;10.92;67.70;100158.56;4875335;29;20064;-90
2022/10/28 10:40:18;;;;;;;29.92;14.15;;;;;;;10.86;68.30;100154.28;4860702;29;20156;-89
2022/10/28 10:42:45;;;;;;;21.20;11.07;;;;;;;10.84;68.35;100117.38;4861149;29;20081;-91
2022/10/28 10:45:22;;;;;;;;;;;;;;;11.05;67.86;100157.81;4893726;29;20092;-90
2022/10/28 10:48:12;;;;;;;21.08;11.48;;;;;;;11.09;67.76;100146.28;4941845;28;19921;-91
2022/10/28 10:50:41;;;;;;;28.83;12.38;;;;;;;11.03;67.89;100143.63;4947559;28;20094;-90
2022/10/28 10:53:18;;;;;;;26.05;11.60;;;;;;;11.18;67.37;100153.53;4955729;28;20043;-88
2022/10/28 10:55:52;;;;;;;24.50;12.35;;;;;;;11.05;67.19;100138.66;4931380;28;20138;-88
2022/10/28 10:58:25;;;;;;;31.67;12.75;;;;;;;10.89;67.38;100109.91;4956166;28;20134;-89
2022/10/28 11:00:55;;;;;;;30.50;16.40;;;;;;;10.91;67.58;100118.63;4922334;29;20094;-90
2022/10/28 11:03:47;;;;;;;35.55;15.50;;;;;;;11.17;67.72;100135.50;4955661;28;20042;-86
2022/10/28 11:06:20;;;;;;;29.15;13.02;;;;;;;11.20;67.30;100129.44;4975477;28;20047;-87
2022/10/28 11:08:46;;;;;;;27.70;12.73;;;;;;;11.07;67.27;100121.16;4973070;28;20564;-87
2022/10/28 11:11:18;;;;;;;;;;;;;;;11.23;67.15;100136.25;4956553;28;20536;-89
2022/10/28 11:13:45;;;;;;;30.25;15.35;;;;;;;10.92;67.73;100122.19;4971804;28;19929;-89
2022/10/28 11:16:23;;;;;;;28.17;13.60;;;;;;;10.97;67.58;100128.41;4962319;28;20035;-87
2022/10/28 11:18:51;;;;;;;27.48;12.77;;;;;;;11.13;67.51;100133.66;4956170;28;20081;-87
2022/10/28 11:21:46;;;;;;;22.40;10.75;;;;;;;11.18;67.30;100128.09;4954261;28;20059;-87
2022/10/28 11:24:31;;;;;;;17.42;10.35;;;;;;;11.07;66.94;100132.09;4957624;28;20049;-88
2022/10/28 11:27:16;;;;;;;20.35;10.75;;;;;;;11.07;67.45;100134.84;4968437;28;20062;-87
2022/10/28 11:29:45;;;;;;;26.50;15.57;;;;;;;10.82;67.27;100106.72;4939654;29;20043;-86
2022/10/28 11:32:48;;;;;;;28.83;12.90;;;;;;;10.91;67.67;100131.50;4923697;28;20039;-89
2022/10/28 11:35:53;;;;;;;25.17;12.10;;;;;;;10.94;67.85;100133.66;4939536;29;20087;-86
2022/10/28 11:38:23;;;;;;;;;;;;;;;10.90;67.42;100127.97;4946371;29;20079;-87
2022/10/28 11:41:24;;;;;;;21.60;10.65;;;;;;;10.82;68.07;100123.94;4948619;29;19922;-88
2022/10/28 11:43:56;;;;;;;24.90;14.82;;;;;;;10.55;68.24;100064.44;4965663;29;20047;-87
2022/10/28 11:46:45;;;;;;;35.58;16.60;;;;;;;10.68;68.07;100094.91;4951305;29;20051;-87
2022/10/28 11:50:00;;;;;;;28.70;12.50;;;;;;;10.93;67.82;100107.41;4927218;29;20083;-87
2022/10/28 11:53:25;;;;;;;24.55;13.18;;;;;;;11.00;68.04;100094.16;4899531;29;20171;-86
2022/10/28 11:56:26;;;;;;;41.95;19.77;;;;;;;11.14;67.76;100105.19;4904214;29;20052;-87
2022/10/28 11:59:52;;;;;;;28.23;11.88;;;;;;;10.96;67.54;100107.63;4881842;29;20068;-91
2022/10/28 12:02:43;;;;;;;25.08;12.90;;;;;;;11.05;67.79;100105.03;4876590;29;20219;-87
2022/10/28 12:06:03;;;;;;;20.77;11.05;;;;;;;11.07;67.73;100116.50;4880647;29;20071;-87
2022/10/28 12:09:17;;;;;;;20.58;11.15;;;;;;;10.94;67.54;100066.06;4893526;29;20053;-87
2022/10/28 12:12:20;;;;;;;23.05;11.40;;;;;;;11.14;67.38;100086.84;4837505;29;20066;-88
2022/10/28 12:15:51;;;;;;;25.27;10.65;;;;;;;11.13;67.63;100096.16;4837616;29;20124;-86
2022/10/28 12:18:51;;;;;;;48.88;27.83;;;;;;;11.08;67.92;100096.22;4841621;29;20042;-86
2022/10/28 12:21:49;;;;;;;78.15;42.70;;;;;;;11.00;68.15;100091.44;4840488;29;20050;-90
2022/10/28 12:24:24;;;;;;;30.58;16.40;;;;;;;10.89;68.68;100095.41;4854140;29;20057;-89
2022/10/28 12:27:01;;;;;;;26.23;13.13;;;;;;;10.89;68.57;100074.34;4882375;29;20101;-88
2022/10/28 12:30:15;;;;;;;26.63;12.65;;;;;;;10.94;68.46;100084.41;4877126;29;20061;-88
2022/10/28 12:33:42;;;;;;;32.28;15.45;;;;;;;11.00;68.47;100080.50;4890227;29;20052;-88
2022/10/28 12:36:11;;;;;;;31.00;16.73;;;;;;;11.03;68.45;100083.44;4876777;29;20069;-87
2022/10/28 12:38:44;;;;;;;36.38;17.70;;;;;;;10.83;68.16;100059.13;4877170;29;20136;-90
2022/10/28 12:41:44;;;;;;;36.33;18.63;;;;;;;10.80;68.50;100060.53;4847492;29;20076;-90
2022/10/28 12:44:16;;;;;;;46.25;25.02;;;;;;;10.65;68.52;100038.06;4861520;29;20080;-88
2022/10/28 12:47:20;;;;;;;23.35;12.15;;;;;;;10.86;68.51;100085.06;4863367;29;20056;-89
2022/10/28 12:50:05;;;;;;;21.88;10.75;;;;;;;10.93;68.55;100077.31;4932202;29;20044;-88